sensor_id;sensor_type;location;lat;lon;timestamp;temperature;humidity
28835;DHT22;15969;51.536;11.884;2023-04-15T00:00:16;8.20;99.90
28835;DHT22;15969;51.536;11.884;2023-04-15T00:02:42;8.20;99.90
28835;DHT22;15969;51.536;11.884;2023-04-15T00:05:08;8.20;99.90
28835;DHT22;15969;51.536;11.884;2023-04-15T00:07:34;8.20;99.90
28835;DHT22;15969;51.536;11.884;2023-04-15T00:10:00;8.20;99.90
28835;DHT22;15969;51.536;11.884;2023-04-15T00:12:27;8.20;99.90
28835;DHT22;15969;51.536;11.884;2023-04-15T00:14:52;8.10;99.90
28835;DHT22;15969;51.536;11.884;2023-04-15T00:17:19;8.10;99.90
28835;DHT22;15969;51.536;11.884;2023-04-15T00:19:44;8.10;99.90
28835;DHT22;15969;51.536;11.884;2023-04-15T00:22:10;8.10;99.90
28835;DHT22;15969;51.536;11.884;2023-04-15T00:24:37;8.10;99.90
28835;DHT22;15969;51.536;11.884;2023-04-15T00:27:03;8.10;99.90
28835;DHT22;15969;51.536;11.884;2023-04-15T00:29:29;8.00;99.90
28835;DHT22;15969;51.536;11.884;2023-04-15T00:31:55;8.00;99.90
28835;DHT22;15969;51.536;11.884;2023-04-15T00:34:21;8.10;99.90
28835;DHT22;15969;51.536;11.884;2023-04-15T00:36:48;8.00;99.90
28835;DHT22;15969;51.536;11.884;2023-04-15T00:39:14;8.00;99.90
28835;DHT22;15969;51.536;11.884;2023-04-15T00:41:40;8.00;99.90
28835;DHT22;15969;51.536;11.884;2023-04-15T00:44:07;8.00;99.90
28835;DHT22;15969;51.536;11.884;2023-04-15T00:46:35;8.00;99.90
28835;DHT22;15969;51.536;11.884;2023-04-15T00:49:03;8.10;99.90
28835;DHT22;15969;51.536;11.884;2023-04-15T00:51:30;8.10;99.90
28835;DHT22;15969;51.536;11.884;2023-04-15T00:53:58;8.10;99.90
28835;DHT22;15969;51.536;11.884;2023-04-15T00:56:25;8.00;99.90
28835;DHT22;15969;51.536;11.884;2023-04-15T00:58:51;8.00;99.90
28835;DHT22;15969;51.536;11.884;2023-04-15T01:01:21;8.00;99.90
28835;DHT22;15969;51.536;11.884;2023-04-15T01:03:48;8.00;99.90
28835;DHT22;15969;51.536;11.884;2023-04-15T01:06:14;8.00;99.90
28835;DHT22;15969;51.536;11.884;2023-04-15T01:08:41;8.00;99.90
28835;DHT22;15969;51.536;11.884;2023-04-15T01:11:06;8.00;99.90
28835;DHT22;15969;51.536;11.884;2023-04-15T01:13:33;8.00;99.90
28835;DHT22;15969;51.536;11.884;2023-04-15T01:15:59;8.00;99.90
28835;DHT22;15969;51.536;11.884;2023-04-15T01:18:26;7.90;99.90
28835;DHT22;15969;51.536;11.884;2023-04-15T01:20:52;7.90;99.90
28835;DHT22;15969;51.536;11.884;2023-04-15T01:23:18;7.90;99.90
28835;DHT22;15969;51.536;11.884;2023-04-15T01:25:44;7.90;99.90
28835;DHT22;15969;51.536;11.884;2023-04-15T01:28:10;7.90;99.90
28835;DHT22;15969;51.536;11.884;2023-04-15T01:30:36;7.90;99.90
28835;DHT22;15969;51.536;11.884;2023-04-15T01:33:02;7.90;99.90
28835;DHT22;15969;51.536;11.884;2023-04-15T01:35:27;7.90;99.90
28835;DHT22;15969;51.536;11.884;2023-04-15T01:38:02;7.90;99.90
28835;DHT22;15969;51.536;11.884;2023-04-15T01:40:30;7.90;99.90
28835;DHT22;15969;51.536;11.884;2023-04-15T01:42:56;7.90;99.90
28835;DHT22;15969;51.536;11.884;2023-04-15T01:45:22;7.90;99.90
28835;DHT22;15969;51.536;11.884;2023-04-15T01:47:47;7.90;99.90
28835;DHT22;15969;51.536;11.884;2023-04-15T01:50:13;7.80;99.90
28835;DHT22;15969;51.536;11.884;2023-04-15T01:52:39;7.90;99.90
28835;DHT22;15969;51.536;11.884;2023-04-15T01:55:06;7.90;99.90
28835;DHT22;15969;51.536;11.884;2023-04-15T01:57:32;7.90;99.90
28835;DHT22;15969;51.536;11.884;2023-04-15T01:59:58;7.90;99.90
28835;DHT22;15969;51.536;11.884;2023-04-15T02:02:24;7.90;99.90
28835;DHT22;15969;51.536;11.884;2023-04-15T02:04:50;7.90;99.90
28835;DHT22;15969;51.536;11.884;2023-04-15T02:07:15;7.90;99.90
28835;DHT22;15969;51.536;11.884;2023-04-15T02:09:41;7.90;99.90
28835;DHT22;15969;51.536;11.884;2023-04-15T02:12:08;7.90;99.90
28835;DHT22;15969;51.536;11.884;2023-04-15T02:14:33;7.90;99.90
28835;DHT22;15969;51.536;11.884;2023-04-15T02:16:59;7.90;99.90
28835;DHT22;15969;51.536;11.884;2023-04-15T02:19:34;7.90;99.90
28835;DHT22;15969;51.536;11.884;2023-04-15T02:22:00;7.90;99.90
28835;DHT22;15969;51.536;11.884;2023-04-15T02:24:27;7.80;99.90
28835;DHT22;15969;51.536;11.884;2023-04-15T02:26:53;7.80;99.90
28835;DHT22;15969;51.536;11.884;2023-04-15T02:29:19;7.80;99.90
28835;DHT22;15969;51.536;11.884;2023-04-15T02:31:45;7.80;99.90
28835;DHT22;15969;51.536;11.884;2023-04-15T02:34:12;7.80;99.90
28835;DHT22;15969;51.536;11.884;2023-04-15T02:36:38;7.80;99.90
28835;DHT22;15969;51.536;11.884;2023-04-15T02:39:05;7.70;99.90
28835;DHT22;15969;51.536;11.884;2023-04-15T02:41:30;7.70;99.90
28835;DHT22;15969;51.536;11.884;2023-04-15T02:43:56;7.70;99.90
28835;DHT22;15969;51.536;11.884;2023-04-15T02:46:22;7.70;99.90
28835;DHT22;15969;51.536;11.884;2023-04-15T02:48:48;7.70;99.90
28835;DHT22;15969;51.536;11.884;2023-04-15T02:51:16;7.80;99.90
28835;DHT22;15969;51.536;11.884;2023-04-15T02:53:44;7.70;99.90
28835;DHT22;15969;51.536;11.884;2023-04-15T02:56:10;7.70;99.90
28835;DHT22;15969;51.536;11.884;2023-04-15T02:58:36;7.70;99.90
28835;DHT22;15969;51.536;11.884;2023-04-15T03:01:03;7.70;99.90
28835;DHT22;15969;51.536;11.884;2023-04-15T03:03:28;7.70;99.90
28835;DHT22;15969;51.536;11.884;2023-04-15T03:05:55;7.70;99.90
28835;DHT22;15969;51.536;11.884;2023-04-15T03:08:21;7.70;99.90
28835;DHT22;15969;51.536;11.884;2023-04-15T03:10:46;7.70;99.90
28835;DHT22;15969;51.536;11.884;2023-04-15T03:13:12;7.80;99.90
28835;DHT22;15969;51.536;11.884;2023-04-15T03:15:38;7.70;99.90
28835;DHT22;15969;51.536;11.884;2023-04-15T03:18:04;7.80;99.90
28835;DHT22;15969;51.536;11.884;2023-04-15T03:20:29;7.70;99.90
28835;DHT22;15969;51.536;11.884;2023-04-15T03:22:55;7.70;99.90
28835;DHT22;15969;51.536;11.884;2023-04-15T03:25:21;7.70;99.90
28835;DHT22;15969;51.536;11.884;2023-04-15T03:27:47;7.70;99.90
28835;DHT22;15969;51.536;11.884;2023-04-15T03:30:12;7.70;99.90
28835;DHT22;15969;51.536;11.884;2023-04-15T03:32:39;7.60;99.90
28835;DHT22;15969;51.536;11.884;2023-04-15T03:35:04;7.70;99.90
28835;DHT22;15969;51.536;11.884;2023-04-15T03:37:31;7.70;99.90
28835;DHT22;15969;51.536;11.884;2023-04-15T03:39:56;7.70;99.90
28835;DHT22;15969;51.536;11.884;2023-04-15T03:42:22;7.70;99.90
28835;DHT22;15969;51.536;11.884;2023-04-15T03:44:48;7.70;99.90
28835;DHT22;15969;51.536;11.884;2023-04-15T03:47:13;7.70;99.90
28835;DHT22;15969;51.536;11.884;2023-04-15T03:49:39;7.70;99.90
28835;DHT22;15969;51.536;11.884;2023-04-15T03:52:05;7.70;99.90
28835;DHT22;15969;51.536;11.884;2023-04-15T03:54:30;7.70;99.90
28835;DHT22;15969;51.536;11.884;2023-04-15T03:56:56;7.70;99.90
28835;DHT22;15969;51.536;11.884;2023-04-15T03:59:22;7.70;99.90
28835;DHT22;15969;51.536;11.884;2023-04-15T04:01:48;7.70;99.90
28835;DHT22;15969;51.536;11.884;2023-04-15T04:04:13;7.70;99.90
28835;DHT22;15969;51.536;11.884;2023-04-15T04:06:39;7.70;99.90
28835;DHT22;15969;51.536;11.884;2023-04-15T04:09:05;7.70;99.90
28835;DHT22;15969;51.536;11.884;2023-04-15T04:11:31;7.80;99.90
28835;DHT22;15969;51.536;11.884;2023-04-15T04:13:57;7.70;99.90
28835;DHT22;15969;51.536;11.884;2023-04-15T04:16:23;7.70;99.90
28835;DHT22;15969;51.536;11.884;2023-04-15T04:18:49;7.70;99.90
28835;DHT22;15969;51.536;11.884;2023-04-15T04:21:15;7.70;99.90
28835;DHT22;15969;51.536;11.884;2023-04-15T04:23:41;7.70;99.90
28835;DHT22;15969;51.536;11.884;2023-04-15T04:26:06;7.70;99.90
28835;DHT22;15969;51.536;11.884;2023-04-15T04:28:32;7.70;99.90
28835;DHT22;15969;51.536;11.884;2023-04-15T04:30:58;7.70;99.90
28835;DHT22;15969;51.536;11.884;2023-04-15T04:33:24;7.70;99.90
28835;DHT22;15969;51.536;11.884;2023-04-15T04:35:50;7.70;99.90
28835;DHT22;15969;51.536;11.884;2023-04-15T04:38:16;7.70;99.90
28835;DHT22;15969;51.536;11.884;2023-04-15T04:40:41;7.70;99.90
28835;DHT22;15969;51.536;11.884;2023-04-15T04:43:07;7.80;99.90
28835;DHT22;15969;51.536;11.884;2023-04-15T04:45:33;7.70;99.90
28835;DHT22;15969;51.536;11.884;2023-04-15T04:47:59;7.70;99.90
28835;DHT22;15969;51.536;11.884;2023-04-15T04:50:24;7.70;99.90
28835;DHT22;15969;51.536;11.884;2023-04-15T04:52:51;7.70;99.90
28835;DHT22;15969;51.536;11.884;2023-04-15T04:55:17;7.70;99.90
28835;DHT22;15969;51.536;11.884;2023-04-15T04:57:42;7.80;99.90
28835;DHT22;15969;51.536;11.884;2023-04-15T05:00:08;7.80;99.90
28835;DHT22;15969;51.536;11.884;2023-04-15T05:02:34;7.80;99.90
28835;DHT22;15969;51.536;11.884;2023-04-15T05:05:00;7.80;99.90
28835;DHT22;15969;51.536;11.884;2023-04-15T05:07:26;7.80;99.90
28835;DHT22;15969;51.536;11.884;2023-04-15T05:09:51;7.80;99.90
28835;DHT22;15969;51.536;11.884;2023-04-15T05:12:17;7.80;99.90
28835;DHT22;15969;51.536;11.884;2023-04-15T05:14:43;7.90;99.90
28835;DHT22;15969;51.536;11.884;2023-04-15T05:17:09;7.80;99.90
28835;DHT22;15969;51.536;11.884;2023-04-15T05:19:35;7.90;99.90
28835;DHT22;15969;51.536;11.884;2023-04-15T05:22:01;7.90;99.90
28835;DHT22;15969;51.536;11.884;2023-04-15T05:24:27;7.90;99.90
28835;DHT22;15969;51.536;11.884;2023-04-15T05:26:53;7.90;99.90
28835;DHT22;15969;51.536;11.884;2023-04-15T05:29:19;7.90;99.90
28835;DHT22;15969;51.536;11.884;2023-04-15T05:31:45;8.00;99.90
28835;DHT22;15969;51.536;11.884;2023-04-15T05:34:10;8.00;99.90
28835;DHT22;15969;51.536;11.884;2023-04-15T05:36:36;8.00;99.90
28835;DHT22;15969;51.536;11.884;2023-04-15T05:39:02;8.00;99.90
28835;DHT22;15969;51.536;11.884;2023-04-15T05:41:28;8.00;99.90
28835;DHT22;15969;51.536;11.884;2023-04-15T05:43:54;8.00;99.90
28835;DHT22;15969;51.536;11.884;2023-04-15T05:46:20;8.00;99.90
28835;DHT22;15969;51.536;11.884;2023-04-15T05:48:45;8.10;99.90
28835;DHT22;15969;51.536;11.884;2023-04-15T05:51:11;8.10;99.90
28835;DHT22;15969;51.536;11.884;2023-04-15T05:53:37;8.00;99.90
28835;DHT22;15969;51.536;11.884;2023-04-15T05:56:03;8.00;99.90
28835;DHT22;15969;51.536;11.884;2023-04-15T05:58:29;8.00;99.90
28835;DHT22;15969;51.536;11.884;2023-04-15T06:00:54;8.00;99.90
28835;DHT22;15969;51.536;11.884;2023-04-15T06:03:21;8.10;99.90
28835;DHT22;15969;51.536;11.884;2023-04-15T06:05:47;8.10;99.90
28835;DHT22;15969;51.536;11.884;2023-04-15T06:08:12;8.10;99.90
28835;DHT22;15969;51.536;11.884;2023-04-15T06:10:38;8.10;99.90
28835;DHT22;15969;51.536;11.884;2023-04-15T06:13:04;8.10;99.90
28835;DHT22;15969;51.536;11.884;2023-04-15T06:15:30;8.10;99.90
28835;DHT22;15969;51.536;11.884;2023-04-15T06:17:56;8.10;99.90
28835;DHT22;15969;51.536;11.884;2023-04-15T06:20:22;8.10;99.90
28835;DHT22;15969;51.536;11.884;2023-04-15T06:22:48;8.10;99.90
28835;DHT22;15969;51.536;11.884;2023-04-15T06:25:14;8.10;99.90
28835;DHT22;15969;51.536;11.884;2023-04-15T06:27:40;8.10;99.90
28835;DHT22;15969;51.536;11.884;2023-04-15T06:30:06;8.10;99.90
28835;DHT22;15969;51.536;11.884;2023-04-15T06:32:32;8.10;99.90
28835;DHT22;15969;51.536;11.884;2023-04-15T06:34:58;8.10;99.90
28835;DHT22;15969;51.536;11.884;2023-04-15T06:37:23;8.10;99.90
28835;DHT22;15969;51.536;11.884;2023-04-15T06:39:49;8.10;99.90
28835;DHT22;15969;51.536;11.884;2023-04-15T06:42:15;8.00;99.90
28835;DHT22;15969;51.536;11.884;2023-04-15T06:44:41;8.00;99.90
28835;DHT22;15969;51.536;11.884;2023-04-15T06:47:07;8.00;99.90
28835;DHT22;15969;51.536;11.884;2023-04-15T06:49:33;8.00;99.90
28835;DHT22;15969;51.536;11.884;2023-04-15T06:51:59;8.00;99.90
28835;DHT22;15969;51.536;11.884;2023-04-15T06:54:25;8.10;99.90
28835;DHT22;15969;51.536;11.884;2023-04-15T06:56:51;8.10;99.90
28835;DHT22;15969;51.536;11.884;2023-04-15T06:59:17;8.10;99.90
28835;DHT22;15969;51.536;11.884;2023-04-15T07:01:43;8.10;99.90
28835;DHT22;15969;51.536;11.884;2023-04-15T07:04:09;8.10;99.90
28835;DHT22;15969;51.536;11.884;2023-04-15T07:06:35;8.10;99.90
28835;DHT22;15969;51.536;11.884;2023-04-15T07:09:01;8.10;99.90
28835;DHT22;15969;51.536;11.884;2023-04-15T07:11:28;8.10;99.90
28835;DHT22;15969;51.536;11.884;2023-04-15T07:13:54;8.10;99.90
28835;DHT22;15969;51.536;11.884;2023-04-15T07:16:21;8.20;99.90
28835;DHT22;15969;51.536;11.884;2023-04-15T07:18:46;8.20;99.90
28835;DHT22;15969;51.536;11.884;2023-04-15T07:21:12;8.20;99.90
28835;DHT22;15969;51.536;11.884;2023-04-15T07:23:38;8.20;99.90
28835;DHT22;15969;51.536;11.884;2023-04-15T07:26:04;8.20;99.90
28835;DHT22;15969;51.536;11.884;2023-04-15T07:28:30;8.20;99.90
28835;DHT22;15969;51.536;11.884;2023-04-15T07:30:55;8.30;99.90
28835;DHT22;15969;51.536;11.884;2023-04-15T07:33:22;8.30;99.90
28835;DHT22;15969;51.536;11.884;2023-04-15T07:35:48;8.30;99.90
28835;DHT22;15969;51.536;11.884;2023-04-15T07:38:14;8.30;99.90
28835;DHT22;15969;51.536;11.884;2023-04-15T07:40:40;8.30;99.90
28835;DHT22;15969;51.536;11.884;2023-04-15T07:43:06;8.30;99.90
28835;DHT22;15969;51.536;11.884;2023-04-15T07:45:33;8.40;99.90
28835;DHT22;15969;51.536;11.884;2023-04-15T07:48:00;8.40;99.90
28835;DHT22;15969;51.536;11.884;2023-04-15T07:50:27;8.40;99.90
28835;DHT22;15969;51.536;11.884;2023-04-15T07:52:53;8.40;99.90
28835;DHT22;15969;51.536;11.884;2023-04-15T07:55:18;8.40;99.90
28835;DHT22;15969;51.536;11.884;2023-04-15T07:57:46;8.40;99.90
28835;DHT22;15969;51.536;11.884;2023-04-15T08:00:12;8.40;99.90
28835;DHT22;15969;51.536;11.884;2023-04-15T08:02:38;8.40;99.90
28835;DHT22;15969;51.536;11.884;2023-04-15T08:05:05;8.50;99.90
28835;DHT22;15969;51.536;11.884;2023-04-15T08:07:31;8.50;99.90
28835;DHT22;15969;51.536;11.884;2023-04-15T08:09:57;8.50;99.90
28835;DHT22;15969;51.536;11.884;2023-04-15T08:12:23;8.60;99.90
28835;DHT22;15969;51.536;11.884;2023-04-15T08:14:49;8.50;99.90
28835;DHT22;15969;51.536;11.884;2023-04-15T08:17:15;8.50;99.90
28835;DHT22;15969;51.536;11.884;2023-04-15T08:19:41;8.60;99.90
28835;DHT22;15969;51.536;11.884;2023-04-15T08:22:07;8.50;99.90
28835;DHT22;15969;51.536;11.884;2023-04-15T08:24:33;8.60;99.90
28835;DHT22;15969;51.536;11.884;2023-04-15T08:26:59;8.50;99.90
28835;DHT22;15969;51.536;11.884;2023-04-15T08:29:25;8.60;99.90
28835;DHT22;15969;51.536;11.884;2023-04-15T08:31:51;8.60;99.90
28835;DHT22;15969;51.536;11.884;2023-04-15T08:34:18;8.60;99.90
28835;DHT22;15969;51.536;11.884;2023-04-15T08:36:44;8.60;99.90
28835;DHT22;15969;51.536;11.884;2023-04-15T08:39:09;8.60;99.90
28835;DHT22;15969;51.536;11.884;2023-04-15T08:41:46;8.60;99.90
28835;DHT22;15969;51.536;11.884;2023-04-15T08:44:22;8.70;99.90
28835;DHT22;15969;51.536;11.884;2023-04-15T08:46:50;8.70;99.90
28835;DHT22;15969;51.536;11.884;2023-04-15T08:49:16;8.70;99.90
28835;DHT22;15969;51.536;11.884;2023-04-15T08:51:43;8.70;99.90
28835;DHT22;15969;51.536;11.884;2023-04-15T08:54:10;8.80;99.90
28835;DHT22;15969;51.536;11.884;2023-04-15T08:56:37;8.80;99.90
28835;DHT22;15969;51.536;11.884;2023-04-15T08:59:03;8.80;99.90
28835;DHT22;15969;51.536;11.884;2023-04-15T09:01:31;8.80;99.90
28835;DHT22;15969;51.536;11.884;2023-04-15T09:03:58;8.80;99.90
28835;DHT22;15969;51.536;11.884;2023-04-15T09:06:24;8.80;99.90
28835;DHT22;15969;51.536;11.884;2023-04-15T09:08:50;8.80;99.90
28835;DHT22;15969;51.536;11.884;2023-04-15T09:11:16;8.80;99.90
28835;DHT22;15969;51.536;11.884;2023-04-15T09:13:42;8.80;99.90
28835;DHT22;15969;51.536;11.884;2023-04-15T09:16:08;8.80;99.90
28835;DHT22;15969;51.536;11.884;2023-04-15T09:18:35;8.80;99.90
28835;DHT22;15969;51.536;11.884;2023-04-15T09:21:07;8.80;99.90
28835;DHT22;15969;51.536;11.884;2023-04-15T09:23:36;8.90;99.90
28835;DHT22;15969;51.536;11.884;2023-04-15T09:26:05;8.90;99.90
28835;DHT22;15969;51.536;11.884;2023-04-15T09:28:31;9.00;99.90
28835;DHT22;15969;51.536;11.884;2023-04-15T09:30:58;8.90;99.90
28835;DHT22;15969;51.536;11.884;2023-04-15T09:33:26;9.00;99.90
28835;DHT22;15969;51.536;11.884;2023-04-15T09:36:01;9.00;99.90
28835;DHT22;15969;51.536;11.884;2023-04-15T09:38:29;9.00;99.90
28835;DHT22;15969;51.536;11.884;2023-04-15T09:40:55;9.00;99.90
28835;DHT22;15969;51.536;11.884;2023-04-15T09:43:22;9.00;99.90
28835;DHT22;15969;51.536;11.884;2023-04-15T09:45:52;9.00;99.90
28835;DHT22;15969;51.536;11.884;2023-04-15T09:48:24;9.10;99.90
28835;DHT22;15969;51.536;11.884;2023-04-15T09:50:52;9.10;99.90
28835;DHT22;15969;51.536;11.884;2023-04-15T09:53:22;9.10;99.90
28835;DHT22;15969;51.536;11.884;2023-04-15T09:55:56;9.10;99.90
28835;DHT22;15969;51.536;11.884;2023-04-15T09:58:28;9.20;99.90
28835;DHT22;15969;51.536;11.884;2023-04-15T10:00:56;9.20;99.90
28835;DHT22;15969;51.536;11.884;2023-04-15T10:03:27;9.20;99.90
28835;DHT22;15969;51.536;11.884;2023-04-15T10:05:56;9.20;99.90
28835;DHT22;15969;51.536;11.884;2023-04-15T10:08:26;9.30;99.90
28835;DHT22;15969;51.536;11.884;2023-04-15T10:10:53;9.30;99.90
28835;DHT22;15969;51.536;11.884;2023-04-15T10:13:24;9.40;99.90
28835;DHT22;15969;51.536;11.884;2023-04-15T10:16:19;9.30;99.90
28835;DHT22;15969;51.536;11.884;2023-04-15T10:18:47;9.40;99.90
28835;DHT22;15969;51.536;11.884;2023-04-15T10:21:20;9.40;99.90
28835;DHT22;15969;51.536;11.884;2023-04-15T10:23:48;9.40;99.90
28835;DHT22;15969;51.536;11.884;2023-04-15T10:26:15;9.50;99.90
28835;DHT22;15969;51.536;11.884;2023-04-15T10:28:42;9.50;99.90
28835;DHT22;15969;51.536;11.884;2023-04-15T10:31:14;9.50;99.90
28835;DHT22;15969;51.536;11.884;2023-04-15T10:33:42;9.50;99.90
28835;DHT22;15969;51.536;11.884;2023-04-15T10:36:09;9.60;99.90
28835;DHT22;15969;51.536;11.884;2023-04-15T10:38:40;9.60;99.90
28835;DHT22;15969;51.536;11.884;2023-04-15T10:41:27;9.60;99.90
28835;DHT22;15969;51.536;11.884;2023-04-15T10:46:42;9.60;99.90
28835;DHT22;15969;51.536;11.884;2023-04-15T10:49:16;9.70;99.90
28835;DHT22;15969;51.536;11.884;2023-04-15T10:51:50;9.70;99.90
28835;DHT22;15969;51.536;11.884;2023-04-15T10:54:30;9.80;99.90
28835;DHT22;15969;51.536;11.884;2023-04-15T11:02:55;9.90;99.90
28835;DHT22;15969;51.536;11.884;2023-04-15T11:05:50;9.90;99.90
28835;DHT22;15969;51.536;11.884;2023-04-15T11:08:16;9.90;99.90
28835;DHT22;15969;51.536;11.884;2023-04-15T11:21:05;10.10;99.90
28835;DHT22;15969;51.536;11.884;2023-04-15T11:23:34;10.20;99.90
28835;DHT22;15969;51.536;11.884;2023-04-15T11:26:02;10.20;99.90
28835;DHT22;15969;51.536;11.884;2023-04-15T11:28:43;10.30;99.90
28835;DHT22;15969;51.536;11.884;2023-04-15T11:31:12;10.30;99.90
28835;DHT22;15969;51.536;11.884;2023-04-15T11:34:05;10.30;99.90
28835;DHT22;15969;51.536;11.884;2023-04-15T11:36:31;10.30;99.90
28835;DHT22;15969;51.536;11.884;2023-04-15T11:38:58;10.40;99.90
28835;DHT22;15969;51.536;11.884;2023-04-15T11:41:24;10.50;99.90
28835;DHT22;15969;51.536;11.884;2023-04-15T11:43:51;10.40;99.90
28835;DHT22;15969;51.536;11.884;2023-04-15T11:46:17;10.50;99.90
28835;DHT22;15969;51.536;11.884;2023-04-15T11:48:44;10.50;99.90
28835;DHT22;15969;51.536;11.884;2023-04-15T11:51:11;10.50;99.90
28835;DHT22;15969;51.536;11.884;2023-04-15T11:53:48;10.60;99.90
28835;DHT22;15969;51.536;11.884;2023-04-15T11:56:19;10.60;99.90
28835;DHT22;15969;51.536;11.884;2023-04-15T11:58:47;10.70;99.90
28835;DHT22;15969;51.536;11.884;2023-04-15T12:01:15;10.70;99.90
28835;DHT22;15969;51.536;11.884;2023-04-15T12:03:45;10.80;99.90
28835;DHT22;15969;51.536;11.884;2023-04-15T12:06:17;10.80;99.90
28835;DHT22;15969;51.536;11.884;2023-04-15T12:13:53;10.90;99.90
28835;DHT22;15969;51.536;11.884;2023-04-15T12:16:21;10.90;99.90
28835;DHT22;15969;51.536;11.884;2023-04-15T12:18:56;10.90;99.90
28835;DHT22;15969;51.536;11.884;2023-04-15T12:21:32;10.90;99.90
28835;DHT22;15969;51.536;11.884;2023-04-15T12:24:03;10.90;99.90
28835;DHT22;15969;51.536;11.884;2023-04-15T12:26:42;10.90;99.90
28835;DHT22;15969;51.536;11.884;2023-04-15T12:29:14;10.90;99.90
28835;DHT22;15969;51.536;11.884;2023-04-15T12:31:49;10.80;99.90
28835;DHT22;15969;51.536;11.884;2023-04-15T12:34:49;10.80;99.90
28835;DHT22;15969;51.536;11.884;2023-04-15T12:37:16;10.90;99.90
28835;DHT22;15969;51.536;11.884;2023-04-15T12:39:43;10.90;99.90
28835;DHT22;15969;51.536;11.884;2023-04-15T12:42:10;11.00;99.90
28835;DHT22;15969;51.536;11.884;2023-04-15T12:44:37;10.90;99.90
28835;DHT22;15969;51.536;11.884;2023-04-15T12:47:03;11.00;99.90
28835;DHT22;15969;51.536;11.884;2023-04-15T12:49:30;11.00;99.90
28835;DHT22;15969;51.536;11.884;2023-04-15T12:51:59;11.00;99.90
28835;DHT22;15969;51.536;11.884;2023-04-15T12:54:26;11.00;99.90
28835;DHT22;15969;51.536;11.884;2023-04-15T12:56:53;11.10;99.90
28835;DHT22;15969;51.536;11.884;2023-04-15T12:59:20;11.00;99.90
28835;DHT22;15969;51.536;11.884;2023-04-15T13:01:47;11.10;99.90
28835;DHT22;15969;51.536;11.884;2023-04-15T13:04:13;11.10;99.90
28835;DHT22;15969;51.536;11.884;2023-04-15T13:06:39;11.10;99.90
28835;DHT22;15969;51.536;11.884;2023-04-15T13:09:04;11.10;99.90
28835;DHT22;15969;51.536;11.884;2023-04-15T13:11:31;11.10;99.90
28835;DHT22;15969;51.536;11.884;2023-04-15T13:13:59;11.10;99.90
28835;DHT22;15969;51.536;11.884;2023-04-15T13:16:25;11.20;99.90
28835;DHT22;15969;51.536;11.884;2023-04-15T13:18:51;11.10;99.90
28835;DHT22;15969;51.536;11.884;2023-04-15T13:21:18;11.20;99.90
28835;DHT22;15969;51.536;11.884;2023-04-15T13:23:44;11.20;99.90
28835;DHT22;15969;51.536;11.884;2023-04-15T13:26:10;11.30;99.90
28835;DHT22;15969;51.536;11.884;2023-04-15T13:28:36;11.30;99.90
28835;DHT22;15969;51.536;11.884;2023-04-15T13:31:02;11.30;99.90
28835;DHT22;15969;51.536;11.884;2023-04-15T13:33:28;11.40;99.90
28835;DHT22;15969;51.536;11.884;2023-04-15T13:35:53;11.40;99.90
28835;DHT22;15969;51.536;11.884;2023-04-15T13:38:19;11.40;99.90
28835;DHT22;15969;51.536;11.884;2023-04-15T13:40:45;11.40;99.90
28835;DHT22;15969;51.536;11.884;2023-04-15T13:43:11;11.50;99.90
28835;DHT22;15969;51.536;11.884;2023-04-15T13:45:36;11.50;99.90
28835;DHT22;15969;51.536;11.884;2023-04-15T13:48:03;11.50;99.90
28835;DHT22;15969;51.536;11.884;2023-04-15T13:50:29;11.50;99.90
28835;DHT22;15969;51.536;11.884;2023-04-15T13:52:54;11.50;99.90
28835;DHT22;15969;51.536;11.884;2023-04-15T13:55:20;11.40;99.90
28835;DHT22;15969;51.536;11.884;2023-04-15T13:57:46;11.50;99.90
28835;DHT22;15969;51.536;11.884;2023-04-15T14:00:12;11.60;99.90
28835;DHT22;15969;51.536;11.884;2023-04-15T14:02:39;11.50;99.90
28835;DHT22;15969;51.536;11.884;2023-04-15T14:05:06;11.40;99.90
28835;DHT22;15969;51.536;11.884;2023-04-15T14:07:32;11.50;99.90
28835;DHT22;15969;51.536;11.884;2023-04-15T14:09:57;11.50;99.90
28835;DHT22;15969;51.536;11.884;2023-04-15T14:12:23;11.50;99.90
28835;DHT22;15969;51.536;11.884;2023-04-15T14:14:49;11.50;99.90
28835;DHT22;15969;51.536;11.884;2023-04-15T14:17:14;11.50;99.90
28835;DHT22;15969;51.536;11.884;2023-04-15T14:19:40;11.50;99.90
28835;DHT22;15969;51.536;11.884;2023-04-15T14:22:06;11.40;99.90
28835;DHT22;15969;51.536;11.884;2023-04-15T14:24:31;11.40;99.90
28835;DHT22;15969;51.536;11.884;2023-04-15T14:26:57;11.40;99.90
28835;DHT22;15969;51.536;11.884;2023-04-15T14:29:23;11.40;99.90
28835;DHT22;15969;51.536;11.884;2023-04-15T14:31:49;11.40;99.90
28835;DHT22;15969;51.536;11.884;2023-04-15T14:34:15;11.40;99.90
28835;DHT22;15969;51.536;11.884;2023-04-15T14:36:41;11.40;99.90
28835;DHT22;15969;51.536;11.884;2023-04-15T14:39:07;11.40;99.90
28835;DHT22;15969;51.536;11.884;2023-04-15T14:41:33;11.40;99.90
28835;DHT22;15969;51.536;11.884;2023-04-15T14:43:59;11.50;99.90
28835;DHT22;15969;51.536;11.884;2023-04-15T14:46:25;11.50;99.90
28835;DHT22;15969;51.536;11.884;2023-04-15T14:48:51;11.40;99.90
28835;DHT22;15969;51.536;11.884;2023-04-15T14:51:17;11.40;99.90
28835;DHT22;15969;51.536;11.884;2023-04-15T14:53:44;11.40;99.90
28835;DHT22;15969;51.536;11.884;2023-04-15T14:56:10;11.40;99.90
28835;DHT22;15969;51.536;11.884;2023-04-15T14:58:36;11.40;99.90
28835;DHT22;15969;51.536;11.884;2023-04-15T15:01:02;11.40;99.90
28835;DHT22;15969;51.536;11.884;2023-04-15T15:03:28;11.30;99.90
28835;DHT22;15969;51.536;11.884;2023-04-15T15:05:54;11.40;99.90
28835;DHT22;15969;51.536;11.884;2023-04-15T15:08:21;11.40;99.90
28835;DHT22;15969;51.536;11.884;2023-04-15T15:10:47;11.30;99.90
28835;DHT22;15969;51.536;11.884;2023-04-15T15:13:13;11.30;99.90
28835;DHT22;15969;51.536;11.884;2023-04-15T15:15:38;11.30;99.90
28835;DHT22;15969;51.536;11.884;2023-04-15T15:18:04;11.40;99.90
28835;DHT22;15969;51.536;11.884;2023-04-15T15:20:30;11.30;99.90
28835;DHT22;15969;51.536;11.884;2023-04-15T15:22:57;11.20;99.90
28835;DHT22;15969;51.536;11.884;2023-04-15T15:25:22;11.20;99.90
28835;DHT22;15969;51.536;11.884;2023-04-15T15:27:48;11.30;99.90
28835;DHT22;15969;51.536;11.884;2023-04-15T15:30:14;11.20;99.90
28835;DHT22;15969;51.536;11.884;2023-04-15T15:32:41;11.20;99.90
28835;DHT22;15969;51.536;11.884;2023-04-15T15:35:07;11.30;99.90
28835;DHT22;15969;51.536;11.884;2023-04-15T15:37:34;11.20;99.90
28835;DHT22;15969;51.536;11.884;2023-04-15T15:40:03;11.30;99.90
28835;DHT22;15969;51.536;11.884;2023-04-15T15:42:30;11.40;99.90
28835;DHT22;15969;51.536;11.884;2023-04-15T15:44:56;11.40;99.90
28835;DHT22;15969;51.536;11.884;2023-04-15T15:47:22;11.40;99.90
28835;DHT22;15969;51.536;11.884;2023-04-15T15:49:48;11.40;99.90